createdAt,value
2022-12-31T00:06:40.545Z,9.10
2022-12-31T00:11:34.750Z,9.00
2022-12-31T00:26:55.061Z,8.90
2022-12-31T00:31:46.735Z,8.80
2022-12-31T00:36:39.908Z,8.80
2022-12-31T00:41:32.142Z,8.70
2022-12-31T00:46:25.147Z,8.70
2022-12-31T00:51:20.291Z,8.60
2022-12-31T01:12:16.529Z,8.60
2022-12-31T01:17:08.312Z,8.60
2022-12-31T01:22:00.038Z,8.60
2022-12-31T01:26:52.031Z,8.60
2022-12-31T01:47:05.790Z,8.70
2022-12-31T01:52:10.835Z,8.60
2022-12-31T01:57:05.122Z,8.70
2022-12-31T02:01:57.203Z,8.70
2022-12-31T02:07:06.902Z,8.70
2022-12-31T02:11:58.834Z,8.70
2022-12-31T02:17:11.346Z,8.80
2022-12-31T02:23:05.130Z,8.80
2022-12-31T02:28:33.530Z,8.70
2022-12-31T02:33:43.055Z,8.80
2022-12-31T02:38:42.204Z,9.00
2022-12-31T02:43:34.763Z,9.00
2022-12-31T02:48:46.805Z,9.10
2022-12-31T02:54:18.763Z,9.10
2022-12-31T02:59:59.460Z,9.30
2022-12-31T03:04:55.107Z,9.30
2022-12-31T03:09:47.227Z,9.30
2022-12-31T03:14:39.026Z,9.30
2022-12-31T03:19:49.462Z,9.50
2022-12-31T03:24:59.723Z,9.70
2022-12-31T03:29:51.402Z,9.80
2022-12-31T03:39:48.849Z,10.20
2022-12-31T03:44:40.542Z,10.40
2022-12-31T03:49:32.284Z,10.70
2022-12-31T03:54:23.967Z,11.00
2022-12-31T03:59:15.693Z,11.30
2022-12-31T04:04:07.362Z,11.60
2022-12-31T04:08:59.153Z,11.80
2022-12-31T04:13:50.826Z,11.80
2022-12-31T04:18:42.516Z,11.70
2022-12-31T04:23:34.256Z,11.70
2022-12-31T04:28:25.935Z,11.70
2022-12-31T04:33:17.691Z,11.60
2022-12-31T04:38:09.408Z,11.50
2022-12-31T04:43:01.102Z,11.50
2022-12-31T04:47:52.783Z,11.50
2022-12-31T04:52:44.493Z,11.50
2022-12-31T04:57:36.228Z,11.50
2022-12-31T05:02:34.076Z,11.60
2022-12-31T05:07:26.228Z,11.70
2022-12-31T05:12:22.024Z,11.80
2022-12-31T05:22:31.608Z,11.80
2022-12-31T05:32:30.059Z,11.70
2022-12-31T05:37:22.999Z,11.80
2022-12-31T05:42:16.196Z,11.90
2022-12-31T05:47:08.076Z,11.90
2022-12-31T05:52:00.656Z,12.00
2022-12-31T05:56:54.276Z,12.00
2022-12-31T06:11:58.137Z,12.20
2022-12-31T06:16:51.084Z,12.20
2022-12-31T06:21:42.971Z,12.30
2022-12-31T06:31:42.830Z,12.40
2022-12-31T06:36:34.973Z,12.40
2022-12-31T06:41:27.806Z,12.50
2022-12-31T06:46:21.572Z,12.50
2022-12-31T06:51:21.715Z,12.60
2022-12-31T06:56:34.746Z,12.50
2022-12-31T07:02:13.676Z,12.50
2022-12-31T07:07:24.866Z,12.40
2022-12-31T07:12:53.245Z,12.00
2022-12-31T07:18:18.878Z,12.00
2022-12-31T07:23:11.162Z,12.00
2022-12-31T07:28:50.592Z,11.70
2022-12-31T07:33:45.764Z,11.50
2022-12-31T07:39:15.737Z,11.50
2022-12-31T07:44:42.065Z,11.50
2022-12-31T07:49:36.657Z,11.40
2022-12-31T08:00:18.034Z,11.30
2022-12-31T08:05:34.973Z,11.40
2022-12-31T08:10:49.952Z,11.50
2022-12-31T08:15:42.751Z,11.60
2022-12-31T08:20:55.187Z,11.80
2022-12-31T08:36:44.332Z,12.70
2022-12-31T08:41:49.027Z,12.70
2022-12-31T08:52:22.012Z,12.30
2022-12-31T08:57:44.636Z,12.30
2022-12-31T09:03:25.009Z,12.20
2022-12-31T09:14:27.213Z,12.30
2022-12-31T09:19:23.319Z,12.50
2022-12-31T09:29:57.100Z,12.90
2022-12-31T09:35:27.216Z,13.60
2022-12-31T09:41:01.934Z,14.20
2022-12-31T09:46:31.826Z,14.40
2022-12-31T09:51:46.581Z,14.60
2022-12-31T10:03:01.499Z,15.00
2022-12-31T10:19:56.430Z,15.60
2022-12-31T10:25:49.906Z,15.60
2022-12-31T10:31:11.945Z,15.70
2022-12-31T10:41:41.470Z,15.90
2022-12-31T10:47:13.180Z,16.00
2022-12-31T10:52:27.454Z,16.20
2022-12-31T10:57:34.404Z,16.30
2022-12-31T11:03:29.031Z,16.40
2022-12-31T11:09:27.426Z,16.50
2022-12-31T11:15:14.056Z,16.50
2022-12-31T11:32:04.673Z,16.30
2022-12-31T11:48:42.961Z,16.70
2022-12-31T11:54:12.758Z,16.80
2022-12-31T11:59:18.883Z,16.70
2022-12-31T12:04:13.653Z,16.60
2022-12-31T12:14:46.720Z,16.80
2022-12-31T12:19:47.119Z,16.70
2022-12-31T12:24:40.513Z,16.60
2022-12-31T12:29:43.649Z,16.30
2022-12-31T12:34:47.739Z,16.20
2022-12-31T12:44:48.929Z,15.60
2022-12-31T12:55:28.820Z,15.00
2022-12-31T13:06:20.627Z,14.70
2022-12-31T13:11:45.012Z,14.70
2022-12-31T13:22:43.848Z,14.50
2022-12-31T13:27:49.578Z,14.50
2022-12-31T13:54:48.198Z,14.60
2022-12-31T14:10:19.312Z,14.60
2022-12-31T14:21:08.993Z,14.20
2022-12-31T14:26:16.329Z,14.00
2022-12-31T14:31:53.317Z,13.80
2022-12-31T14:43:07.373Z,13.50
2022-12-31T14:48:40.571Z,13.40
2022-12-31T15:04:00.046Z,13.10
2022-12-31T15:09:33.677Z,13.00
2022-12-31T15:15:14.994Z,12.90
2022-12-31T15:20:37.535Z,12.70
2022-12-31T15:25:41.818Z,12.50
2022-12-31T15:30:51.717Z,12.30
2022-12-31T15:35:52.981Z,12.30
2022-12-31T15:40:52.176Z,12.20
2022-12-31T15:45:53.298Z,12.00
2022-12-31T15:50:49.764Z,11.80
2022-12-31T16:01:22.789Z,11.70
2022-12-31T16:06:18.088Z,11.70
2022-12-31T16:11:11.617Z,11.60
2022-12-31T16:21:39.227Z,11.60
2022-12-31T16:26:50.334Z,11.40
2022-12-31T16:31:47.920Z,11.40
2022-12-31T16:36:40.399Z,11.40
2022-12-31T16:41:44.188Z,11.40
2022-12-31T16:46:36.964Z,11.20
2022-12-31T16:51:37.376Z,11.20
2022-12-31T16:56:40.954Z,11.00
2022-12-31T17:01:40.949Z,10.90
2022-12-31T17:06:34.099Z,10.70
2022-12-31T17:11:38.465Z,10.60
2022-12-31T17:16:30.759Z,10.60
2022-12-31T17:21:31.151Z,10.60
2022-12-31T17:26:28.557Z,10.60
2022-12-31T17:31:44.566Z,10.40
2022-12-31T17:36:37.199Z,10.30
2022-12-31T17:41:29.783Z,10.40
2022-12-31T17:46:32.806Z,10.40
2022-12-31T17:51:25.891Z,10.50
2022-12-31T17:56:23.515Z,10.60
2022-12-31T18:01:19.802Z,10.90
2022-12-31T18:06:16.582Z,10.90
2022-12-31T18:11:19.937Z,11.00
2022-12-31T18:16:12.716Z,10.90
2022-12-31T18:21:11.665Z,10.80
2022-12-31T18:26:03.590Z,10.70
2022-12-31T18:30:56.244Z,10.60
2022-12-31T18:36:10.405Z,10.40
2022-12-31T18:41:05.381Z,10.40
2022-12-31T18:45:59.082Z,10.30
2022-12-31T18:50:52.737Z,10.10
2022-12-31T18:55:52.192Z,10.10
2022-12-31T19:05:55.516Z,10.10
2022-12-31T19:15:56.574Z,10.10
2022-12-31T19:20:48.596Z,10.20
2022-12-31T19:25:42.395Z,10.40
2022-12-31T19:41:22.149Z,10.70
2022-12-31T19:51:26.977Z,10.50
2022-12-31T19:56:20.487Z,10.50
2022-12-31T20:01:24.511Z,10.50
2022-12-31T20:06:22.622Z,10.40
2022-12-31T20:11:19.539Z,10.40
2022-12-31T20:16:17.400Z,10.40
2022-12-31T20:21:21.837Z,10.30
2022-12-31T20:31:25.280Z,10.30
2022-12-31T20:36:18.237Z,10.20
2022-12-31T20:41:23.129Z,10.20
2022-12-31T20:56:44.052Z,10.00
2022-12-31T21:02:20.118Z,10.00
2022-12-31T21:06:57.903Z,9.90
2022-12-31T21:17:16.371Z,9.70
2022-12-31T21:27:24.414Z,9.50
2022-12-31T21:32:19.152Z,9.30
2022-12-31T22:13:47.752Z,8.80
2022-12-31T22:23:53.407Z,8.80
2022-12-31T22:29:02.691Z,8.70
